createdAt,value
2023-04-04T00:02:26.894Z,2.30
2023-04-04T00:06:35.089Z,2.20
2023-04-04T00:10:44.184Z,2.10
2023-04-04T00:14:48.834Z,2.00
2023-04-04T00:18:57.675Z,1.90
2023-04-04T00:23:00.619Z,1.90
2023-04-04T00:27:05.994Z,1.80
2023-04-04T00:31:12.087Z,1.70
2023-04-04T00:35:18.857Z,1.60
2023-04-04T00:39:28.635Z,1.60
2023-04-04T00:43:33.629Z,1.50
2023-04-04T00:47:39.199Z,1.40
2023-04-04T00:51:43.380Z,1.30
2023-04-04T00:55:46.279Z,1.20
2023-04-04T00:59:50.644Z,1.10
2023-04-04T01:03:53.799Z,1.00
2023-04-04T01:07:58.605Z,1.00
2023-04-04T01:12:02.463Z,0.90
2023-04-04T01:16:08.206Z,0.80
2023-04-04T01:20:14.127Z,0.80
2023-04-04T01:24:23.128Z,0.70
2023-04-04T01:28:30.446Z,0.60
2023-04-04T01:32:47.914Z,0.60
2023-04-04T01:36:55.456Z,0.60
2023-04-04T01:41:03.731Z,0.50
2023-04-04T01:45:09.837Z,0.40
2023-04-04T01:49:13.684Z,0.40
2023-04-04T01:53:20.369Z,0.30
2023-04-04T01:57:23.200Z,0.30
2023-04-04T02:01:27.410Z,0.20
2023-04-04T02:05:30.206Z,0.20
2023-04-04T02:09:34.249Z,0.20
2023-04-04T02:13:41.314Z,0.20
2023-04-04T02:17:51.632Z,0.10
2023-04-04T02:21:54.524Z,0.10
2023-04-04T02:25:58.814Z,0.10
2023-04-04T02:30:01.609Z,0.10
2023-04-04T02:34:07.456Z,0.10
2023-04-04T02:38:10.265Z,0.00
2023-04-04T02:42:15.068Z,-0.10
2023-04-04T02:46:21.627Z,-0.10
2023-04-04T02:50:27.150Z,-0.10
2023-04-04T02:54:31.132Z,-0.20
2023-04-04T02:58:34.033Z,-0.20
2023-04-04T03:02:37.044Z,-0.20
2023-04-04T03:06:44.344Z,-0.20
2023-04-04T03:10:47.485Z,-0.20
2023-04-04T03:14:50.381Z,-0.30
2023-04-04T03:18:53.192Z,-0.30
2023-04-04T03:22:57.918Z,-0.30
2023-04-04T03:27:06.353Z,-0.40
2023-04-04T03:31:09.189Z,-0.40
2023-04-04T03:35:14.625Z,-0.40
2023-04-04T03:39:21.792Z,-0.40
2023-04-04T03:43:28.360Z,-0.40
2023-04-04T03:47:31.275Z,-0.50
2023-04-04T03:51:35.714Z,-0.50
2023-04-04T03:55:44.387Z,-0.50
2023-04-04T03:59:52.306Z,-0.50
2023-04-04T04:03:55.383Z,-0.50
2023-04-04T04:07:58.193Z,-0.60
2023-04-04T04:12:02.321Z,-0.60
2023-04-04T04:16:06.256Z,-0.60
2023-04-04T04:20:10.572Z,-0.70
2023-04-04T04:24:13.351Z,-0.70
2023-04-04T04:28:20.247Z,-0.70
2023-04-04T04:32:27.958Z,-0.80
2023-04-04T04:36:30.849Z,-0.80
2023-04-04T04:40:33.717Z,-0.80
2023-04-04T04:44:37.952Z,-0.90
2023-04-04T04:48:42.069Z,-1.00
2023-04-04T04:52:45.074Z,-1.00
2023-04-04T04:56:48.208Z,-1.00
2023-04-04T05:00:56.548Z,-0.90
2023-04-04T05:05:05.392Z,-0.90
2023-04-04T05:09:08.931Z,-0.90
2023-04-04T05:13:14.035Z,-0.90
2023-04-04T05:17:19.670Z,-0.90
2023-04-04T05:21:23.590Z,-0.80
2023-04-04T05:25:29.061Z,-0.80
2023-04-04T05:29:31.954Z,-0.70
2023-04-04T05:33:36.162Z,-0.60
2023-04-04T05:37:40.650Z,-0.50
2023-04-04T05:41:43.698Z,-0.40
2023-04-04T05:45:46.616Z,-0.30
2023-04-04T05:49:53.530Z,-0.20
2023-04-04T05:53:56.464Z,-0.10
2023-04-04T05:57:59.270Z,0.00
2023-04-04T06:02:02.206Z,0.10
2023-04-04T06:06:10.314Z,0.20
2023-04-04T06:10:18.209Z,0.20
2023-04-04T06:14:27.256Z,0.30
2023-04-04T06:18:30.709Z,0.40
2023-04-04T06:22:35.054Z,0.50
2023-04-04T06:26:37.840Z,0.60
2023-04-04T06:30:41.269Z,0.70
2023-04-04T06:34:47.840Z,0.80
2023-04-04T06:38:52.149Z,0.90
2023-04-04T06:42:57.888Z,1.00
2023-04-04T06:47:00.709Z,1.20
2023-04-04T06:51:09.330Z,1.30
2023-04-04T06:55:23.357Z,1.40
2023-04-04T06:59:31.226Z,1.50
2023-04-04T07:03:34.071Z,1.50
2023-04-04T07:07:37.183Z,1.80
2023-04-04T07:11:44.306Z,1.90
2023-04-04T07:15:48.917Z,2.30
2023-04-04T07:19:52.970Z,2.60
2023-04-04T07:24:03.938Z,3.00
2023-04-04T07:28:12.790Z,3.20
2023-04-04T07:32:17.065Z,3.10
2023-04-04T07:36:19.906Z,3.20
2023-04-04T07:40:22.932Z,3.40
2023-04-04T07:44:27.109Z,3.50
2023-04-04T07:48:30.242Z,3.60
2023-04-04T07:52:33.470Z,3.80
2023-04-04T07:56:36.996Z,4.00
2023-04-04T08:00:41.426Z,4.20
2023-04-04T08:04:45.061Z,4.50
2023-04-04T08:08:48.361Z,4.70
2023-04-04T08:12:55.192Z,4.70
2023-04-04T08:17:04.598Z,4.50
2023-04-04T08:21:07.478Z,4.90
2023-04-04T08:25:11.354Z,5.20
2023-04-04T08:29:14.385Z,5.60
2023-04-04T08:33:22.113Z,5.20
2023-04-04T08:37:33.520Z,4.90
2023-04-04T08:41:37.280Z,4.60
2023-04-04T08:45:43.310Z,4.30
2023-04-04T08:49:51.574Z,4.10
2023-04-04T08:53:55.439Z,4.10
2023-04-04T08:57:58.249Z,4.40
2023-04-04T09:02:15.810Z,4.90
2023-04-04T09:06:23.421Z,5.30
2023-04-04T09:10:31.124Z,5.30
2023-04-04T09:14:39.785Z,5.10
2023-04-04T09:18:46.052Z,4.80
2023-04-04T09:22:50.851Z,4.70
2023-04-04T09:26:56.483Z,4.90
2023-04-04T09:31:04.935Z,5.00
2023-04-04T09:35:08.511Z,5.40
2023-04-04T09:39:13.358Z,6.90
2023-04-04T09:43:18.176Z,6.90
2023-04-04T09:47:31.528Z,7.50
2023-04-04T09:51:36.890Z,8.10
2023-04-04T09:55:41.829Z,9.20
2023-04-04T09:59:47.092Z,9.50
2023-04-04T10:03:53.590Z,10.10
2023-04-04T10:07:58.608Z,10.50
2023-04-04T10:12:11.042Z,11.30
2023-04-04T10:16:15.613Z,11.60
2023-04-04T10:20:18.592Z,12.40
2023-04-04T10:24:33.402Z,12.80
2023-04-04T10:28:37.792Z,12.20
2023-04-04T10:32:51.228Z,12.30
2023-04-04T10:37:05.690Z,12.40
2023-04-04T10:41:12.970Z,10.40
2023-04-04T10:45:28.259Z,9.50
2023-04-04T10:49:37.632Z,8.30
2023-04-04T10:53:42.064Z,7.70
2023-04-04T10:57:58.484Z,7.50
2023-04-04T11:02:07.497Z,7.30
2023-04-04T11:06:15.697Z,6.90
2023-04-04T11:10:23.727Z,6.50
2023-04-04T11:14:30.520Z,6.30
2023-04-04T11:18:50.829Z,6.50
2023-04-04T11:23:09.902Z,7.20
2023-04-04T11:27:14.610Z,7.80
2023-04-04T11:31:25.805Z,9.00
2023-04-04T11:35:31.533Z,9.00
2023-04-04T11:39:34.389Z,8.50
2023-04-04T11:43:46.146Z,7.70
2023-04-04T11:47:56.823Z,7.00
2023-04-04T11:52:04.994Z,6.90
2023-04-04T11:56:08.332Z,6.90
2023-04-04T12:00:16.075Z,6.80
2023-04-04T12:04:20.391Z,6.40
2023-04-04T12:08:26.519Z,6.10
2023-04-04T12:12:32.080Z,6.00
2023-04-04T12:16:39.325Z,6.10
2023-04-04T12:20:42.445Z,6.30
2023-04-04T12:24:50.861Z,6.30
2023-04-04T12:28:57.136Z,6.40
2023-04-04T12:33:03.533Z,6.70
2023-04-04T12:37:12.055Z,7.20
2023-04-04T12:41:19.832Z,7.50
2023-04-04T12:45:24.024Z,7.60
2023-04-04T12:49:30.166Z,7.60
2023-04-04T12:53:33.641Z,7.50
2023-04-04T12:57:44.957Z,7.40
2023-04-04T13:01:50.407Z,7.20
2023-04-04T13:05:56.536Z,7.20
2023-04-04T13:10:01.363Z,7.10
2023-04-04T13:14:11.989Z,7.10
2023-04-04T13:18:17.067Z,7.00
2023-04-04T13:22:22.774Z,7.10
2023-04-04T13:26:26.215Z,7.40
2023-04-04T13:30:32.070Z,7.60
2023-04-04T13:34:36.182Z,8.00
2023-04-04T13:38:41.254Z,8.30
2023-04-04T13:42:44.213Z,8.70
2023-04-04T13:46:48.474Z,8.80
2023-04-04T13:50:53.337Z,9.10
2023-04-04T13:54:57.448Z,9.00
2023-04-04T13:59:00.368Z,8.70
2023-04-04T14:03:07.477Z,8.40
2023-04-04T14:07:10.872Z,8.40
2023-04-04T14:11:14.175Z,8.50
2023-04-04T14:15:17.506Z,8.50
2023-04-04T14:19:27.346Z,8.90
2023-04-04T14:23:31.092Z,9.70
2023-04-04T14:27:38.066Z,9.80
2023-04-04T14:31:40.946Z,8.80
2023-04-04T14:35:46.069Z,8.40
2023-04-04T14:39:49.070Z,8.20
2023-04-04T14:43:52.338Z,8.40
2023-04-04T14:47:55.537Z,8.90
2023-04-04T14:51:59.993Z,9.70
2023-04-04T14:56:04.157Z,9.80
2023-04-04T15:00:08.851Z,9.90
2023-04-04T15:04:13.948Z,9.80
2023-04-04T15:08:18.162Z,9.20
2023-04-04T15:12:21.080Z,8.60
2023-04-04T15:16:25.205Z,8.00
2023-04-04T15:20:29.059Z,7.70
2023-04-04T15:24:35.869Z,8.00
2023-04-04T15:28:39.156Z,8.60
2023-04-04T15:32:42.094Z,9.00
2023-04-04T15:36:44.988Z,9.30
2023-04-04T15:40:52.937Z,9.70
2023-04-04T15:44:55.996Z,9.70
2023-04-04T15:49:01.158Z,9.70
2023-04-04T15:53:03.946Z,9.10
2023-04-04T15:57:12.913Z,8.40
2023-04-04T16:01:18.624Z,7.90
2023-04-04T16:05:22.654Z,7.50
2023-04-04T16:09:29.276Z,7.30
2023-04-04T16:13:33.754Z,7.20
2023-04-04T16:17:37.635Z,7.90
2023-04-04T16:21:42.710Z,8.90
2023-04-04T16:25:49.045Z,9.00
2023-04-04T16:29:53.458Z,8.90
2023-04-04T16:33:56.261Z,8.40
2023-04-04T16:37:59.016Z,8.50
2023-04-04T16:42:03.184Z,8.60
2023-04-04T16:46:12.014Z,8.20
2023-04-04T16:50:17.957Z,7.50
2023-04-04T16:54:20.806Z,7.00
2023-04-04T16:58:23.843Z,6.60
2023-04-04T17:02:28.388Z,6.40
2023-04-04T17:06:35.784Z,6.20
2023-04-04T17:10:40.687Z,6.10
2023-04-04T17:14:43.752Z,6.00
2023-04-04T17:18:50.334Z,5.90
2023-04-04T17:22:56.198Z,5.80
2023-04-04T17:27:00.330Z,5.60
2023-04-04T17:31:03.579Z,5.50
2023-04-04T17:35:10.517Z,5.20
2023-04-04T17:39:13.476Z,4.90
2023-04-04T17:43:16.862Z,4.60
2023-04-04T17:47:20.194Z,4.20
2023-04-04T17:51:24.434Z,3.90
2023-04-04T17:55:30.152Z,3.70
2023-04-04T17:59:33.218Z,3.50
2023-04-04T18:03:38.133Z,3.20
2023-04-04T18:07:47.974Z,3.00
2023-04-04T18:11:53.729Z,2.70
2023-04-04T18:15:59.427Z,2.50
2023-04-04T18:20:04.243Z,2.40
2023-04-04T18:24:11.337Z,2.10
2023-04-04T18:28:14.509Z,2.00
2023-04-04T18:32:28.875Z,1.80
2023-04-04T18:36:32.419Z,1.60
2023-04-04T18:40:37.927Z,1.60
2023-04-04T18:44:41.211Z,1.50
2023-04-04T18:48:44.022Z,1.40
2023-04-04T18:52:49.196Z,1.30
2023-04-04T18:56:53.716Z,1.20
2023-04-04T19:00:58.577Z,1.10
2023-04-04T19:05:07.040Z,1.10
2023-04-04T19:09:11.105Z,1.00
2023-04-04T19:13:18.422Z,1.00
2023-04-04T19:17:21.473Z,1.00
2023-04-04T19:21:28.626Z,1.00
2023-04-04T19:25:35.179Z,1.00
2023-04-04T19:29:39.720Z,1.10
2023-04-04T19:33:48.956Z,1.20
2023-04-04T19:37:53.841Z,1.30
2023-04-04T19:41:56.731Z,1.40
2023-04-04T19:46:12.189Z,1.50
2023-04-04T19:50:35.545Z,1.60
2023-04-04T19:54:43.293Z,1.70
2023-04-04T19:58:48.358Z,1.80
2023-04-04T20:02:54.529Z,1.90
2023-04-04T20:06:57.688Z,2.00
2023-04-04T20:11:02.028Z,2.10
2023-04-04T20:15:14.924Z,2.10
2023-04-04T20:19:22.211Z,2.10
2023-04-04T20:23:26.119Z,2.10
2023-04-04T20:27:29.060Z,2.20
2023-04-04T20:31:36.231Z,2.20
2023-04-04T20:35:43.117Z,2.00
2023-04-04T20:39:50.516Z,1.90
2023-04-04T20:43:54.787Z,1.80
2023-04-04T20:48:04.419Z,1.70
2023-04-04T20:52:23.350Z,1.60
2023-04-04T20:56:57.163Z,1.40
2023-04-04T21:01:04.078Z,1.40
2023-04-04T21:05:27.439Z,1.40
2023-04-04T21:09:32.303Z,1.40
2023-04-04T21:13:44.537Z,1.50
2023-04-04T21:17:51.126Z,1.50
2023-04-04T21:21:54.006Z,1.60
2023-04-04T21:26:00.016Z,1.60
2023-04-04T21:30:02.910Z,1.60
2023-04-04T21:34:19.733Z,1.70
2023-04-04T21:38:32.897Z,1.70
2023-04-04T21:42:37.052Z,1.90
2023-04-04T21:46:41.746Z,1.90
2023-04-04T21:50:47.645Z,1.90
2023-04-04T21:54:50.474Z,2.00
2023-04-04T21:58:55.469Z,2.00
2023-04-04T22:02:58.596Z,2.00
2023-04-04T22:07:01.601Z,2.00
2023-04-04T22:11:05.842Z,2.00
2023-04-04T22:15:15.829Z,2.10
2023-04-04T22:19:26.669Z,2.20
2023-04-04T22:23:36.652Z,2.40
2023-04-04T22:27:42.622Z,2.50
2023-04-04T22:31:49.338Z,2.60
2023-04-04T22:35:55.182Z,2.60
2023-04-04T22:40:01.598Z,2.60
2023-04-04T22:44:04.585Z,2.70
2023-04-04T22:48:09.217Z,2.70
2023-04-04T22:52:12.989Z,2.70
2023-04-04T22:56:20.774Z,2.70
2023-04-04T23:00:23.680Z,2.60
2023-04-04T23:04:30.158Z,2.60
2023-04-04T23:08:35.119Z,2.60
2023-04-04T23:12:38.378Z,2.60
2023-04-04T23:16:45.038Z,2.50
2023-04-04T23:20:50.442Z,2.40
2023-04-04T23:24:55.787Z,2.20
2023-04-04T23:29:07.155Z,2.10
2023-04-04T23:33:14.414Z,2.00
2023-04-04T23:37:18.736Z,1.90
2023-04-04T23:41:21.557Z,1.80
2023-04-04T23:45:27.310Z,1.70
2023-04-04T23:49:30.240Z,1.60
2023-04-04T23:53:37.324Z,1.50
2023-04-04T23:57:40.594Z,1.40
